createdAt,value
2023-04-17T00:02:25.557Z,101657.41
2023-04-17T00:04:52.469Z,101656.38
2023-04-17T00:07:22.460Z,101657.47
2023-04-17T00:09:48.993Z,101665.72
2023-04-17T00:12:15.489Z,101656.31
2023-04-17T00:14:42.006Z,101659.66
2023-04-17T00:17:08.422Z,101659.41
2023-04-17T00:19:34.829Z,101657.84
2023-04-17T00:22:01.198Z,101659.25
2023-04-17T00:24:27.568Z,101658.47
2023-04-17T00:26:53.934Z,101667.06
2023-04-17T00:29:20.339Z,101656.59
2023-04-17T00:31:46.788Z,101663.16
2023-04-17T00:34:13.261Z,101666.44
2023-04-17T00:36:39.667Z,101666.56
2023-04-17T00:39:06.045Z,101666.09
2023-04-17T00:41:32.417Z,101659.44
2023-04-17T00:43:58.767Z,101660.44
2023-04-17T00:46:25.408Z,101661.41
2023-04-17T00:48:51.858Z,101661.22
2023-04-17T00:51:18.250Z,101655.13
2023-04-17T00:53:45.539Z,101665.59
2023-04-17T00:56:11.956Z,101667.66
2023-04-17T00:58:38.477Z,101664.28
2023-04-17T01:01:05.953Z,101661.63
2023-04-17T01:03:33.115Z,101658.53
2023-04-17T01:05:59.797Z,101652.25
2023-04-17T01:08:26.174Z,101657.44
2023-04-17T01:10:52.635Z,101657.66
2023-04-17T01:13:19.068Z,101658.31
2023-04-17T01:15:46.806Z,101657.34
2023-04-17T01:18:13.191Z,101647.44
2023-04-17T01:20:39.589Z,101652.25
2023-04-17T01:23:05.952Z,101648.00
2023-04-17T01:25:32.373Z,101653.16
2023-04-17T01:27:58.776Z,101649.44
2023-04-17T01:30:25.329Z,101656.38
2023-04-17T01:32:53.983Z,101651.22
2023-04-17T01:35:20.513Z,101645.22
2023-04-17T01:37:46.913Z,101658.97
2023-04-17T01:40:13.600Z,101653.41
2023-04-17T01:42:40.305Z,101653.06
2023-04-17T01:45:07.296Z,101646.34
2023-04-17T01:47:33.756Z,101653.69
2023-04-17T01:50:00.746Z,101658.78
2023-04-17T01:52:27.109Z,101655.41
2023-04-17T01:54:53.494Z,101652.47
2023-04-17T01:57:19.910Z,101656.09
2023-04-17T01:59:46.269Z,101653.94
2023-04-17T02:02:12.731Z,101658.63
2023-04-17T02:04:39.280Z,101657.78
2023-04-17T02:07:05.843Z,101659.97
2023-04-17T02:09:32.310Z,101661.75
2023-04-17T02:11:58.682Z,101665.47
2023-04-17T02:14:25.208Z,101663.94
2023-04-17T02:16:53.622Z,101657.53
2023-04-17T02:19:20.001Z,101670.06
2023-04-17T02:21:46.398Z,101672.63
2023-04-17T02:24:12.775Z,101672.81
2023-04-17T02:26:40.424Z,101674.00
2023-04-17T02:29:06.823Z,101669.34
2023-04-17T02:31:33.347Z,101669.97
2023-04-17T02:33:59.779Z,101672.16
2023-04-17T02:36:27.118Z,101671.75
2023-04-17T02:38:53.485Z,101673.72
2023-04-17T02:41:19.858Z,101678.75
2023-04-17T02:43:46.933Z,101667.94
2023-04-17T02:46:13.375Z,101671.00
2023-04-17T02:48:39.754Z,101675.25
2023-04-17T02:51:06.164Z,101669.63
2023-04-17T02:53:32.528Z,101674.59
2023-04-17T02:55:58.899Z,101677.31
2023-04-17T02:58:25.284Z,101670.34
2023-04-17T03:00:51.703Z,101670.66
2023-04-17T03:03:18.272Z,101675.69
2023-04-17T03:05:44.862Z,101670.94
2023-04-17T03:08:11.244Z,101679.81
2023-04-17T03:10:37.649Z,101673.44
2023-04-17T03:13:04.403Z,101674.34
2023-04-17T03:15:30.994Z,101673.69
2023-04-17T03:17:57.419Z,101681.13
2023-04-17T03:20:23.879Z,101672.22
2023-04-17T03:22:50.477Z,101681.59
2023-04-17T03:25:16.951Z,101686.91
2023-04-17T03:27:43.360Z,101681.09
2023-04-17T03:30:10.194Z,101688.97
2023-04-17T03:32:37.977Z,101689.31
2023-04-17T03:35:04.915Z,101695.22
2023-04-17T03:37:32.182Z,101692.91
2023-04-17T03:39:58.620Z,101691.69
2023-04-17T03:42:26.651Z,101690.75
2023-04-17T03:44:53.041Z,101684.72
2023-04-17T03:47:19.483Z,101694.19
2023-04-17T03:49:45.891Z,101692.00
2023-04-17T03:52:12.320Z,101692.34
2023-04-17T03:54:38.736Z,101693.38
2023-04-17T03:57:05.284Z,101695.97
2023-04-17T03:59:31.804Z,101690.19
2023-04-17T04:01:58.426Z,101690.81
2023-04-17T04:04:25.396Z,101693.25
2023-04-17T04:06:54.297Z,101698.66
2023-04-17T04:09:21.202Z,101695.00
2023-04-17T04:11:47.656Z,101696.84
2023-04-17T04:14:14.555Z,101699.59
2023-04-17T04:16:41.264Z,101701.00
2023-04-17T04:19:07.677Z,101702.94
2023-04-17T04:21:34.431Z,101711.41
2023-04-17T04:24:00.974Z,101705.38
2023-04-17T04:26:27.368Z,101708.13
2023-04-17T04:28:53.825Z,101709.19
2023-04-17T04:31:20.631Z,101710.84
2023-04-17T04:33:47.294Z,101713.28
2023-04-17T04:36:20.892Z,101719.53
2023-04-17T04:38:49.730Z,101717.22
2023-04-17T04:41:17.573Z,101717.09
2023-04-17T04:43:44.238Z,101724.22
2023-04-17T04:46:11.469Z,101717.38
2023-04-17T04:48:39.406Z,101718.44
2023-04-17T04:51:07.825Z,101729.38
2023-04-17T04:53:34.198Z,101730.00
2023-04-17T04:56:00.689Z,101725.28
2023-04-17T04:58:29.451Z,101732.44
2023-04-17T05:00:56.236Z,101733.03
2023-04-17T05:03:23.443Z,101740.34
2023-04-17T05:05:50.475Z,101730.00
2023-04-17T05:08:16.933Z,101737.91
2023-04-17T05:10:43.339Z,101738.53
2023-04-17T05:13:10.210Z,101733.34
2023-04-17T05:15:36.609Z,101731.69
2023-04-17T05:18:03.099Z,101741.69
2023-04-17T05:20:29.665Z,101736.53
2023-04-17T05:22:56.617Z,101745.47
2023-04-17T05:25:23.184Z,101744.72
2023-04-17T05:27:49.592Z,101741.25
2023-04-17T05:30:16.001Z,101749.59
2023-04-17T05:32:42.495Z,101745.94
2023-04-17T05:35:09.023Z,101751.44
2023-04-17T05:37:35.407Z,101751.41
2023-04-17T05:40:02.539Z,101744.88
2023-04-17T05:42:28.943Z,101747.56
2023-04-17T05:44:55.330Z,101755.19
2023-04-17T05:47:21.755Z,101757.28
2023-04-17T05:49:51.069Z,101747.13
2023-04-17T05:52:17.630Z,101758.81
2023-04-17T05:54:44.114Z,101761.25
2023-04-17T05:57:10.663Z,101763.06
2023-04-17T05:59:37.051Z,101764.28
2023-04-17T06:02:04.747Z,101763.63
2023-04-17T06:04:32.081Z,101765.06
2023-04-17T06:06:58.793Z,101767.03
2023-04-17T06:09:25.790Z,101768.84
2023-04-17T06:11:52.303Z,101770.91
2023-04-17T06:14:18.749Z,101769.88
2023-04-17T06:16:45.355Z,101774.16
2023-04-17T06:19:12.139Z,101770.91
2023-04-17T06:21:38.772Z,101774.56
2023-04-17T06:24:05.637Z,101772.72
2023-04-17T06:26:32.067Z,101773.31
2023-04-17T06:28:58.418Z,101776.13
2023-04-17T06:31:25.184Z,101786.78
2023-04-17T06:33:51.583Z,101788.88
2023-04-17T06:36:18.004Z,101784.00
2023-04-17T06:38:44.414Z,101793.72
2023-04-17T06:41:10.792Z,101787.38
2023-04-17T06:43:37.215Z,101793.75
2023-04-17T06:46:03.646Z,101793.09
2023-04-17T06:48:30.203Z,101794.66
2023-04-17T06:50:56.598Z,101795.84
2023-04-17T06:53:22.962Z,101798.78
2023-04-17T06:55:49.418Z,101809.03
2023-04-17T06:58:15.818Z,101796.19
2023-04-17T07:00:42.234Z,101804.19
2023-04-17T07:03:08.720Z,101806.84
2023-04-17T07:05:35.241Z,101802.78
2023-04-17T07:08:01.702Z,101804.78
2023-04-17T07:10:28.086Z,101805.09
2023-04-17T07:12:55.192Z,101801.44
2023-04-17T07:15:21.672Z,101810.47
2023-04-17T07:17:48.164Z,101803.09
2023-04-17T07:20:14.594Z,101812.16
2023-04-17T07:22:41.400Z,101815.84
2023-04-17T07:25:08.058Z,101820.53
2023-04-17T07:27:34.446Z,101817.16
2023-04-17T07:30:00.901Z,101821.09
2023-04-17T07:32:28.340Z,101814.97
2023-04-17T07:34:54.743Z,101822.19
2023-04-17T07:37:21.392Z,101822.06
2023-04-17T07:39:50.961Z,101826.66
2023-04-17T07:42:17.377Z,101830.50
2023-04-17T07:44:43.814Z,101817.78
2023-04-17T07:47:10.389Z,101821.03
2023-04-17T07:49:36.901Z,101823.31
2023-04-17T07:52:03.468Z,101828.03
2023-04-17T07:54:31.188Z,101829.97
2023-04-17T07:57:02.662Z,101823.72
2023-04-17T07:59:29.812Z,101829.19
2023-04-17T08:01:57.169Z,101840.09
2023-04-17T08:04:24.938Z,101836.66
2023-04-17T08:06:52.160Z,101835.19
2023-04-17T08:09:18.528Z,101827.69
2023-04-17T08:11:56.138Z,101838.75
2023-04-17T08:14:23.797Z,101834.69
2023-04-17T08:16:50.506Z,101827.88
2023-04-17T08:19:17.023Z,101832.47
2023-04-17T08:21:43.433Z,101833.59
2023-04-17T08:24:09.810Z,101834.44
2023-04-17T08:26:36.361Z,101836.25
2023-04-17T08:29:04.439Z,101827.59
2023-04-17T08:31:31.367Z,101842.47
2023-04-17T08:34:10.949Z,101834.03
2023-04-17T08:36:40.679Z,101834.34
2023-04-17T08:39:07.118Z,101840.81
2023-04-17T08:41:40.616Z,101835.38
2023-04-17T08:44:06.994Z,101836.59
2023-04-17T08:46:34.513Z,101841.81
2023-04-17T08:49:02.962Z,101849.91
2023-04-17T08:51:29.353Z,101846.53
2023-04-17T08:53:55.744Z,101837.06
2023-04-17T08:56:22.728Z,101833.72
2023-04-17T08:58:49.083Z,101843.41
2023-04-17T09:01:20.463Z,101844.47
2023-04-17T09:03:48.122Z,101843.19
2023-04-17T09:06:15.379Z,101837.94
2023-04-17T09:09:14.345Z,101848.84
2023-04-17T09:11:40.733Z,101842.41
2023-04-17T09:14:07.107Z,101847.41
2023-04-17T09:16:34.120Z,101846.53
2023-04-17T09:19:06.997Z,101850.97
2023-04-17T09:21:33.406Z,101846.31
2023-04-17T09:23:59.876Z,101852.38
2023-04-17T09:26:27.268Z,101846.50
2023-04-17T09:29:04.267Z,101840.66
2023-04-17T09:31:34.147Z,101847.38
2023-04-17T09:34:04.731Z,101844.28
2023-04-17T09:36:33.769Z,101844.25
2023-04-17T09:39:03.390Z,101845.97
2023-04-17T09:41:31.767Z,101851.00
2023-04-17T09:44:05.278Z,101846.31
2023-04-17T09:46:37.863Z,101842.59
2023-04-17T09:49:09.813Z,101847.94
2023-04-17T09:51:36.860Z,101850.22
2023-04-17T09:54:06.900Z,101854.13
2023-04-17T09:56:35.857Z,101855.44
2023-04-17T09:59:06.102Z,101856.19
2023-04-17T10:01:33.941Z,101850.06
2023-04-17T10:04:01.855Z,101843.06
2023-04-17T10:06:31.070Z,101857.41
2023-04-17T10:08:57.875Z,101840.72
2023-04-17T10:11:26.393Z,101847.22
2023-04-17T10:14:21.487Z,101844.69
2023-04-17T10:16:49.139Z,101842.47
2023-04-17T10:19:36.569Z,101835.34
2023-04-17T10:22:18.150Z,101848.66
2023-04-17T10:24:48.767Z,101845.53
2023-04-17T10:27:36.147Z,101848.31
2023-04-17T10:30:04.549Z,101836.88
2023-04-17T10:32:32.085Z,101841.09
2023-04-17T10:35:00.842Z,101827.69
2023-04-17T10:37:52.263Z,101815.78
2023-04-17T10:40:23.231Z,101828.34
2023-04-17T10:43:17.134Z,101818.13
2023-04-17T10:46:12.956Z,101812.81
2023-04-17T10:48:42.861Z,101812.53
2023-04-17T10:51:21.605Z,101810.28
2023-04-17T10:53:51.847Z,101810.97
2023-04-17T10:56:38.900Z,101809.16
2023-04-17T10:59:09.878Z,101817.16
2023-04-17T11:01:48.566Z,101813.44
2023-04-17T11:04:22.986Z,101801.91
2023-04-17T11:06:49.871Z,101810.72
2023-04-17T11:09:16.537Z,101811.03
2023-04-17T11:11:44.898Z,101808.09
2023-04-17T11:14:14.462Z,101811.31
2023-04-17T11:16:43.007Z,101814.81
2023-04-17T11:19:10.301Z,101811.53
2023-04-17T11:21:44.162Z,101820.34
2023-04-17T11:24:11.026Z,101814.78
2023-04-17T11:26:47.349Z,101815.91
2023-04-17T11:29:21.720Z,101801.59
2023-04-17T11:31:49.412Z,101805.19
2023-04-17T11:34:16.872Z,101802.41
2023-04-17T11:36:54.308Z,101801.09
2023-04-17T11:39:21.690Z,101802.59
2023-04-17T11:41:48.401Z,101803.81
2023-04-17T11:44:18.175Z,101800.66
2023-04-17T11:46:58.553Z,101804.34
2023-04-17T11:49:29.281Z,101799.66
2023-04-17T11:51:58.725Z,101805.59
2023-04-17T11:54:38.079Z,101807.91
2023-04-17T11:57:06.426Z,101811.47
2023-04-17T11:59:37.753Z,101802.69
2023-04-17T12:02:06.975Z,101800.84
2023-04-17T12:04:34.895Z,101787.06
2023-04-17T12:07:02.632Z,101802.53
2023-04-17T12:09:31.753Z,101787.38
2023-04-17T12:11:59.309Z,101790.13
2023-04-17T12:14:26.593Z,101790.78
2023-04-17T12:16:53.087Z,101793.16
2023-04-17T12:19:22.385Z,101775.19
2023-04-17T12:21:48.773Z,101774.88
2023-04-17T12:24:15.616Z,101775.56
2023-04-17T12:26:46.777Z,101785.75
2023-04-17T12:29:14.373Z,101787.59
2023-04-17T12:31:41.331Z,101786.66
2023-04-17T12:34:07.747Z,101786.00
2023-04-17T12:36:34.242Z,101793.19
2023-04-17T12:39:01.398Z,101785.44
2023-04-17T12:41:27.961Z,101786.84
2023-04-17T12:43:54.614Z,101789.56
2023-04-17T12:46:21.407Z,101774.34
2023-04-17T12:48:47.939Z,101768.38
2023-04-17T12:51:14.328Z,101765.94
2023-04-17T12:53:40.709Z,101771.25
2023-04-17T12:56:07.429Z,101779.47
2023-04-17T12:58:33.866Z,101784.09
2023-04-17T13:01:00.276Z,101782.75
2023-04-17T13:03:26.923Z,101776.63
2023-04-17T13:05:53.582Z,101775.16
2023-04-17T13:08:19.990Z,101770.31
2023-04-17T13:10:46.365Z,101770.00
2023-04-17T13:13:12.850Z,101773.41
2023-04-17T13:15:39.321Z,101770.72
2023-04-17T13:18:05.830Z,101773.25
2023-04-17T13:20:32.255Z,101775.25
2023-04-17T13:22:59.128Z,101770.44
2023-04-17T13:25:25.753Z,101776.28
2023-04-17T13:27:52.206Z,101770.72
2023-04-17T13:30:18.706Z,101774.22
2023-04-17T13:32:45.184Z,101759.47
2023-04-17T13:35:13.409Z,101757.97
2023-04-17T13:37:42.975Z,101744.69
2023-04-17T13:40:12.748Z,101733.50
2023-04-17T13:42:39.374Z,101733.34
2023-04-17T13:45:07.001Z,101724.47
2023-04-17T13:47:33.408Z,101735.38
2023-04-17T13:50:00.028Z,101741.28
2023-04-17T13:52:26.781Z,101735.00
2023-04-17T13:54:54.251Z,101727.59
2023-04-17T13:57:20.776Z,101723.47
2023-04-17T13:59:47.150Z,101717.03
2023-04-17T14:02:13.659Z,101718.97
2023-04-17T14:04:40.306Z,101708.38
2023-04-17T14:07:06.805Z,101713.06
2023-04-17T14:09:33.187Z,101716.41
2023-04-17T14:11:59.592Z,101722.34
2023-04-17T14:14:27.145Z,101709.22
2023-04-17T14:16:53.540Z,101710.25
2023-04-17T14:19:20.241Z,101719.53
2023-04-17T14:21:46.856Z,101714.28
2023-04-17T14:24:13.231Z,101724.75
2023-04-17T14:26:39.814Z,101717.44
2023-04-17T14:29:06.374Z,101716.09
2023-04-17T14:31:32.856Z,101698.06
2023-04-17T14:33:59.270Z,101693.47
2023-04-17T14:36:25.882Z,101701.97
2023-04-17T14:38:53.654Z,101705.69
2023-04-17T14:41:20.370Z,101709.59
2023-04-17T14:43:46.798Z,101696.41
2023-04-17T14:46:13.254Z,101691.31
2023-04-17T14:48:54.213Z,101678.16
2023-04-17T14:51:23.346Z,101663.75
2023-04-17T14:53:51.099Z,101666.22
2023-04-17T14:56:17.532Z,101694.34
2023-04-17T14:58:43.920Z,101705.16
2023-04-17T15:01:10.612Z,101706.19
2023-04-17T15:03:37.316Z,101704.53
2023-04-17T15:06:04.117Z,101696.94
2023-04-17T15:08:31.140Z,101705.25
2023-04-17T15:10:58.101Z,101698.78
2023-04-17T15:13:24.623Z,101697.72
2023-04-17T15:15:51.050Z,101688.59
2023-04-17T15:18:17.484Z,101697.59
2023-04-17T15:20:43.889Z,101703.25
2023-04-17T15:23:10.271Z,101700.84
2023-04-17T15:25:36.737Z,101693.88
2023-04-17T15:28:03.192Z,101693.81
2023-04-17T15:30:29.656Z,101677.47
2023-04-17T15:32:56.099Z,101686.00
2023-04-17T15:35:22.560Z,101693.66
2023-04-17T15:37:49.015Z,101679.28
2023-04-17T15:40:16.152Z,101683.56
2023-04-17T15:42:42.549Z,101683.81
2023-04-17T15:45:09.625Z,101675.59
2023-04-17T15:47:36.042Z,101674.22
2023-04-17T15:50:02.467Z,101669.97
2023-04-17T15:52:28.865Z,101666.56
2023-04-17T15:54:55.266Z,101652.19
2023-04-17T15:57:22.831Z,101654.16
2023-04-17T15:59:49.371Z,101667.56
2023-04-17T16:02:16.212Z,101663.25
2023-04-17T16:04:43.779Z,101660.84
2023-04-17T16:07:11.917Z,101663.31
2023-04-17T16:09:39.900Z,101665.38
2023-04-17T16:12:09.946Z,101653.16
2023-04-17T16:14:36.999Z,101650.00
2023-04-17T16:17:03.745Z,101654.44
2023-04-17T16:19:30.752Z,101640.34
2023-04-17T16:21:57.486Z,101638.19
2023-04-17T16:24:25.177Z,101641.19
2023-04-17T16:26:55.662Z,101636.03
2023-04-17T16:29:22.234Z,101641.53
2023-04-17T16:31:48.643Z,101633.84
2023-04-17T16:34:15.192Z,101633.41
2023-04-17T16:36:45.414Z,101635.97
2023-04-17T16:39:12.528Z,101624.78
2023-04-17T16:41:39.148Z,101639.38
2023-04-17T16:44:05.694Z,101637.38
2023-04-17T16:46:48.269Z,101635.50
2023-04-17T16:49:18.447Z,101628.38
2023-04-17T16:51:44.828Z,101637.47
2023-04-17T16:54:11.345Z,101633.69
2023-04-17T16:56:37.845Z,101641.41
2023-04-17T16:59:04.693Z,101649.53
2023-04-17T17:01:32.169Z,101650.09
2023-04-17T17:03:58.693Z,101654.34
2023-04-17T17:06:25.274Z,101655.03
2023-04-17T17:08:53.066Z,101660.63
2023-04-17T17:11:20.719Z,101657.13
2023-04-17T17:13:51.097Z,101664.88
2023-04-17T17:16:18.545Z,101668.97
2023-04-17T17:18:45.612Z,101666.63
2023-04-17T17:21:12.077Z,101666.91
2023-04-17T17:23:38.556Z,101669.31
2023-04-17T17:26:05.337Z,101675.34
2023-04-17T17:28:31.873Z,101665.88
2023-04-17T17:31:02.981Z,101664.44
2023-04-17T17:33:29.888Z,101671.69
2023-04-17T17:35:57.141Z,101675.75
2023-04-17T17:38:23.880Z,101674.09
2023-04-17T17:40:53.307Z,101670.09
2023-04-17T17:43:19.771Z,101674.25
2023-04-17T17:45:46.374Z,101676.53
2023-04-17T17:48:15.315Z,101670.22
2023-04-17T17:50:42.782Z,101669.50
2023-04-17T17:53:10.023Z,101673.53
2023-04-17T17:55:37.864Z,101678.59
2023-04-17T17:58:05.738Z,101673.97
2023-04-17T18:00:32.356Z,101668.31
2023-04-17T18:02:59.228Z,101675.91
2023-04-17T18:05:25.755Z,101671.81
2023-04-17T18:07:52.135Z,101671.50
2023-04-17T18:10:18.660Z,101676.28
2023-04-17T18:12:45.020Z,101683.25
2023-04-17T18:15:11.747Z,101673.63
2023-04-17T18:17:38.174Z,101676.44
2023-04-17T18:20:04.820Z,101677.81
2023-04-17T18:22:31.242Z,101681.22
2023-04-17T18:24:57.616Z,101682.59
2023-04-17T18:27:24.008Z,101683.72
2023-04-17T18:29:50.383Z,101685.75
2023-04-17T18:32:16.961Z,101688.59
2023-04-17T18:34:43.843Z,101689.75
2023-04-17T18:37:10.381Z,101689.84
2023-04-17T18:39:36.821Z,101684.59
2023-04-17T18:42:03.238Z,101695.84
2023-04-17T18:44:29.647Z,101689.94
2023-04-17T18:46:56.076Z,101692.53
2023-04-17T18:49:22.525Z,101704.78
2023-04-17T18:51:50.001Z,101704.13
2023-04-17T18:54:17.262Z,101701.28
2023-04-17T18:56:44.292Z,101706.50
2023-04-17T18:59:11.220Z,101706.38
2023-04-17T19:01:37.811Z,101709.81
2023-04-17T19:04:04.721Z,101709.34
2023-04-17T19:06:31.512Z,101710.75
2023-04-17T19:08:57.936Z,101713.13
2023-04-17T19:11:24.363Z,101707.53
2023-04-17T19:13:50.842Z,101709.34
2023-04-17T19:16:17.293Z,101713.44
2023-04-17T19:18:43.687Z,101707.31
2023-04-17T19:21:10.426Z,101705.66
2023-04-17T19:23:37.380Z,101707.66
2023-04-17T19:26:03.934Z,101709.63
2023-04-17T19:28:30.383Z,101709.81
2023-04-17T19:30:57.809Z,101716.69
2023-04-17T19:33:24.261Z,101717.63
2023-04-17T19:35:52.204Z,101716.50
2023-04-17T19:38:18.724Z,101718.94
2023-04-17T19:40:57.909Z,101719.38
2023-04-17T19:43:24.289Z,101726.16
2023-04-17T19:45:50.695Z,101711.19
2023-04-17T19:48:17.090Z,101728.56
2023-04-17T19:50:43.493Z,101721.19
2023-04-17T19:53:09.885Z,101735.25
2023-04-17T19:55:36.327Z,101728.53
2023-04-17T19:58:02.698Z,101724.47
2023-04-17T20:00:29.155Z,101726.16
2023-04-17T20:02:56.074Z,101726.44
2023-04-17T20:05:22.745Z,101724.88
2023-04-17T20:07:49.166Z,101725.63
2023-04-17T20:10:16.753Z,101735.25
2023-04-17T20:12:43.128Z,101731.13
2023-04-17T20:15:10.102Z,101731.75
2023-04-17T20:17:36.516Z,101728.53
2023-04-17T20:20:03.036Z,101730.84
2023-04-17T20:22:29.421Z,101737.56
2023-04-17T20:24:55.805Z,101736.13
2023-04-17T20:27:22.213Z,101737.97
2023-04-17T20:29:48.639Z,101733.56
2023-04-17T20:32:15.170Z,101735.63
2023-04-17T20:34:41.549Z,101737.44
2023-04-17T20:37:07.938Z,101732.06
2023-04-17T20:39:34.322Z,101734.41
2023-04-17T20:42:01.514Z,101739.41
2023-04-17T20:44:27.973Z,101740.78
2023-04-17T20:46:54.362Z,101730.44
2023-04-17T20:49:20.976Z,101731.81
2023-04-17T20:51:47.383Z,101734.97
2023-04-17T20:54:13.971Z,101735.25
2023-04-17T20:56:40.483Z,101733.97
2023-04-17T20:59:06.934Z,101734.16
2023-04-17T21:01:33.330Z,101739.69
2023-04-17T21:03:59.814Z,101735.31
2023-04-17T21:06:26.888Z,101731.09
2023-04-17T21:08:53.825Z,101736.88
2023-04-17T21:11:21.317Z,101735.88
2023-04-17T21:13:48.073Z,101735.78
2023-04-17T21:16:14.529Z,101745.09
2023-04-17T21:18:40.919Z,101740.50
2023-04-17T21:21:07.339Z,101741.41
2023-04-17T21:23:33.760Z,101739.50
2023-04-17T21:26:00.436Z,101744.56
2023-04-17T21:28:26.819Z,101742.63
2023-04-17T21:30:53.306Z,101739.50
2023-04-17T21:33:19.682Z,101749.72
2023-04-17T21:35:46.183Z,101746.28
2023-04-17T21:38:12.644Z,101751.22
2023-04-17T21:40:50.519Z,101745.19
2023-04-17T21:43:18.047Z,101755.41
2023-04-17T21:45:44.473Z,101747.34
2023-04-17T21:48:10.893Z,101746.91
2023-04-17T21:50:37.251Z,101745.94
2023-04-17T21:53:03.636Z,101740.97
2023-04-17T21:55:30.039Z,101746.25
2023-04-17T21:57:56.477Z,101744.31
2023-04-17T22:00:22.876Z,101746.72
2023-04-17T22:02:49.368Z,101744.97
2023-04-17T22:05:15.799Z,101750.84
2023-04-17T22:07:51.695Z,101754.03
2023-04-17T22:10:21.097Z,101759.13
2023-04-17T22:12:47.482Z,101751.63
2023-04-17T22:15:13.841Z,101764.09
2023-04-17T22:17:41.014Z,101755.31
2023-04-17T22:20:08.292Z,101762.78
2023-04-17T22:22:34.656Z,101763.81
2023-04-17T22:25:01.205Z,101759.94
2023-04-17T22:27:29.054Z,101765.31
2023-04-17T22:29:55.584Z,101770.53
2023-04-17T22:32:21.995Z,101762.69
2023-04-17T22:34:49.398Z,101772.72
2023-04-17T22:37:15.978Z,101768.72
2023-04-17T22:39:42.366Z,101781.84
2023-04-17T22:42:08.752Z,101776.66
2023-04-17T22:44:35.684Z,101778.34
2023-04-17T22:47:02.038Z,101781.25
2023-04-17T22:49:28.404Z,101785.63
2023-04-17T22:51:54.789Z,101791.72
2023-04-17T22:54:23.182Z,101782.28
2023-04-17T22:56:49.826Z,101788.22
2023-04-17T22:59:16.284Z,101791.53
2023-04-17T23:01:42.692Z,101791.72
2023-04-17T23:04:10.318Z,101789.50
2023-04-17T23:06:36.762Z,101795.31
2023-04-17T23:09:04.696Z,101795.13
2023-04-17T23:11:31.880Z,101787.09
2023-04-17T23:13:58.368Z,101786.66
2023-04-17T23:16:24.791Z,101799.22
2023-04-17T23:18:51.227Z,101792.53
2023-04-17T23:21:17.631Z,101793.31
2023-04-17T23:23:44.026Z,101794.53
2023-04-17T23:26:15.098Z,101794.38
2023-04-17T23:28:41.618Z,101798.63
2023-04-17T23:31:08.046Z,101801.38
2023-04-17T23:33:34.574Z,101796.50
2023-04-17T23:36:01.066Z,101805.03
2023-04-17T23:38:27.602Z,101808.31
2023-04-17T23:40:54.155Z,101812.56
2023-04-17T23:43:20.860Z,101807.41
2023-04-17T23:45:47.234Z,101804.22
2023-04-17T23:48:13.654Z,101808.34
2023-04-17T23:50:40.853Z,101816.38
2023-04-17T23:53:07.469Z,101815.44
2023-04-17T23:55:34.375Z,101804.97
2023-04-17T23:58:00.751Z,101809.50
